createdAt,value
2022-09-17T00:00:37.156Z,0.00
2022-09-17T00:01:36.449Z,0.00
2022-09-17T00:02:36.924Z,0.00
2022-09-17T00:03:36.868Z,0.00
2022-09-17T00:04:36.861Z,0.00
2022-09-17T00:05:36.840Z,0.00
2022-09-17T00:06:36.140Z,0.00
2022-09-17T00:07:37.110Z,0.00
2022-09-17T00:08:36.120Z,0.00
2022-09-17T00:09:36.179Z,0.00
2022-09-17T00:10:36.802Z,0.00
2022-09-17T00:11:36.780Z,0.00
2022-09-17T00:12:36.780Z,0.00
2022-09-17T00:13:36.844Z,0.00
2022-09-17T00:14:36.753Z,0.00
2022-09-17T00:15:36.742Z,0.00
2022-09-17T00:16:36.130Z,0.00
2022-09-17T00:17:36.713Z,0.00
2022-09-17T00:18:36.015Z,0.00
2022-09-17T00:19:36.173Z,0.00
2022-09-17T00:20:36.684Z,0.00
2022-09-17T00:21:36.663Z,0.00
2022-09-17T00:22:35.973Z,0.00
2022-09-17T00:23:35.955Z,0.00
2022-09-17T00:24:35.953Z,0.00
2022-09-17T00:25:36.622Z,0.00
2022-09-17T00:26:36.624Z,0.00
2022-09-17T00:27:35.936Z,0.00
2022-09-17T00:28:36.594Z,0.00
2022-09-17T00:29:35.975Z,0.00
2022-09-17T00:30:35.905Z,0.00
2022-09-17T00:31:36.089Z,0.00
2022-09-17T00:32:35.904Z,0.00
2022-09-17T00:33:36.555Z,0.00
2022-09-17T00:34:35.845Z,0.00
2022-09-17T00:35:35.840Z,0.00
2022-09-17T00:36:36.539Z,0.00
2022-09-17T00:37:35.947Z,0.00
2022-09-17T00:38:36.494Z,0.00
2022-09-17T00:39:37.196Z,0.00
2022-09-17T00:40:35.818Z,0.00
2022-09-17T00:41:35.758Z,0.00
2022-09-17T00:42:35.756Z,0.00
2022-09-17T00:43:36.456Z,0.00
2022-09-17T00:44:35.761Z,0.00
2022-09-17T00:45:36.410Z,0.00
2022-09-17T00:46:35.814Z,0.00
2022-09-17T00:47:36.391Z,0.00
2022-09-17T00:48:36.381Z,0.00
2022-09-17T00:49:35.811Z,0.00
2022-09-17T00:50:36.352Z,0.00
2022-09-17T00:51:37.092Z,0.00
2022-09-17T00:52:36.350Z,0.00
2022-09-17T00:53:35.632Z,0.00
2022-09-17T00:54:35.630Z,0.00
2022-09-17T00:55:36.301Z,0.00
2022-09-17T00:56:36.290Z,0.00
2022-09-17T00:57:36.288Z,0.00
2022-09-17T00:58:40.464Z,0.00
2022-09-17T00:59:38.001Z,0.00
2022-09-17T01:00:35.658Z,0.00
2022-09-17T01:01:35.806Z,0.00
2022-09-17T01:02:35.637Z,0.00
2022-09-17T01:03:36.212Z,0.00
2022-09-17T01:04:35.511Z,0.00
2022-09-17T01:05:35.502Z,0.00
2022-09-17T01:06:35.518Z,0.00
2022-09-17T01:07:35.523Z,0.00
2022-09-17T01:08:35.503Z,0.00
2022-09-17T01:09:36.156Z,0.00
2022-09-17T01:10:35.504Z,0.00
2022-09-17T01:11:35.455Z,0.00
2022-09-17T01:12:36.127Z,0.00
2022-09-17T01:13:35.465Z,0.00
2022-09-17T01:14:36.096Z,0.00
2022-09-17T01:15:35.405Z,0.00
2022-09-17T01:16:35.456Z,0.00
2022-09-17T01:17:36.086Z,0.00
2022-09-17T01:18:36.051Z,0.00
2022-09-17T01:19:36.044Z,0.00
2022-09-17T01:20:36.036Z,0.00
2022-09-17T01:21:35.329Z,0.00
2022-09-17T01:22:36.818Z,0.00
2022-09-17T01:23:35.998Z,0.00
2022-09-17T01:24:35.991Z,0.00
2022-09-17T01:25:35.947Z,0.00
2022-09-17T01:26:35.301Z,0.00
2022-09-17T01:27:35.352Z,0.00
2022-09-17T01:28:36.678Z,0.00
2022-09-17T01:29:36.009Z,0.00
2022-09-17T01:30:35.351Z,0.00
2022-09-17T01:31:36.704Z,0.00
2022-09-17T01:32:35.445Z,0.00
2022-09-17T01:33:35.211Z,0.00
2022-09-17T01:34:35.891Z,0.00
2022-09-17T01:35:35.871Z,0.00
2022-09-17T01:36:35.261Z,0.00
2022-09-17T01:37:35.153Z,0.00
2022-09-17T01:38:35.841Z,0.00
2022-09-17T01:39:35.142Z,0.00
2022-09-17T01:40:35.177Z,0.00
2022-09-17T01:41:35.112Z,0.00
2022-09-17T01:42:35.864Z,0.00
2022-09-17T01:43:35.791Z,0.00
2022-09-17T01:44:35.772Z,0.00
2022-09-17T01:45:35.074Z,0.00
2022-09-17T01:46:35.766Z,0.00
2022-09-17T01:47:35.735Z,0.00
2022-09-17T01:48:35.806Z,0.00
2022-09-17T01:49:35.024Z,0.00
2022-09-17T01:50:35.033Z,0.00
2022-09-17T01:51:35.698Z,0.00
2022-09-17T01:52:35.090Z,0.00
2022-09-17T01:53:35.423Z,0.00
2022-09-17T01:54:39.208Z,0.00
2022-09-17T01:55:36.667Z,0.00
2022-09-17T01:56:35.660Z,0.00
2022-09-17T01:57:35.118Z,0.00
2022-09-17T01:58:34.974Z,0.00
2022-09-17T01:59:35.135Z,0.00
2022-09-17T02:00:35.063Z,0.00
2022-09-17T02:01:34.992Z,0.00
2022-09-17T02:02:34.886Z,0.00
2022-09-17T02:03:34.905Z,0.00
2022-09-17T02:04:34.875Z,0.00
2022-09-17T02:05:35.575Z,0.00
2022-09-17T02:06:35.532Z,0.00
2022-09-17T02:07:35.530Z,0.00
2022-09-17T02:08:35.520Z,0.00
2022-09-17T02:09:35.515Z,0.00
2022-09-17T02:10:36.248Z,0.00
2022-09-17T02:11:35.488Z,0.00
2022-09-17T02:12:34.901Z,0.00
2022-09-17T02:13:35.457Z,0.00
2022-09-17T02:14:35.463Z,0.00
2022-09-17T02:15:34.767Z,0.00
2022-09-17T02:16:35.527Z,0.00
2022-09-17T02:17:34.788Z,0.00
2022-09-17T02:18:35.491Z,0.00
2022-09-17T02:19:34.730Z,0.00
2022-09-17T02:20:35.401Z,0.00
2022-09-17T02:21:34.711Z,0.00
2022-09-17T02:22:34.690Z,0.00
2022-09-17T02:23:35.361Z,0.00
2022-09-17T02:24:35.333Z,0.00
2022-09-17T02:25:34.640Z,0.00
2022-09-17T02:26:34.650Z,0.00
2022-09-17T02:27:35.313Z,0.00
2022-09-17T02:28:36.052Z,0.00
2022-09-17T02:29:35.309Z,0.00
2022-09-17T02:30:35.690Z,0.00
2022-09-17T02:31:34.620Z,0.00
2022-09-17T02:32:34.601Z,0.00
2022-09-17T02:33:35.255Z,0.00
2022-09-17T02:34:34.555Z,0.00
2022-09-17T02:35:34.549Z,0.00
2022-09-17T02:36:36.034Z,0.00
2022-09-17T02:37:35.467Z,0.00
2022-09-17T02:38:34.516Z,0.00
2022-09-17T02:39:35.201Z,0.00
2022-09-17T02:40:35.244Z,0.00
2022-09-17T02:41:35.257Z,0.00
2022-09-17T02:42:34.517Z,0.00
2022-09-17T02:43:34.464Z,0.00
2022-09-17T02:44:34.513Z,0.00
2022-09-17T02:45:35.125Z,0.00
2022-09-17T02:46:34.441Z,0.00
2022-09-17T02:47:35.094Z,0.00
2022-09-17T02:48:35.337Z,0.00
2022-09-17T02:49:34.405Z,0.00
2022-09-17T02:50:34.392Z,0.00
2022-09-17T02:51:35.058Z,0.00
2022-09-17T02:52:35.037Z,0.00
2022-09-17T02:53:35.120Z,0.00
2022-09-17T02:54:35.019Z,0.00
2022-09-17T02:55:35.015Z,0.00
2022-09-17T02:56:35.027Z,0.00
2022-09-17T02:57:34.338Z,0.00
2022-09-17T02:58:34.977Z,0.00
2022-09-17T02:59:35.757Z,0.00
2022-09-17T03:00:34.328Z,0.00
2022-09-17T03:01:35.017Z,0.00
2022-09-17T03:02:35.119Z,0.00
2022-09-17T03:03:34.933Z,0.00
2022-09-17T03:04:35.699Z,0.00
2022-09-17T03:05:34.889Z,0.00
2022-09-17T03:06:34.898Z,0.00
2022-09-17T03:07:34.881Z,0.00
2022-09-17T03:08:34.862Z,0.00
2022-09-17T03:09:34.875Z,0.00
2022-09-17T03:10:34.165Z,0.00
2022-09-17T03:11:34.830Z,0.00
2022-09-17T03:12:34.840Z,0.00
2022-09-17T03:13:34.824Z,0.00
2022-09-17T03:14:34.810Z,0.00
2022-09-17T03:15:34.801Z,0.00
2022-09-17T03:16:34.489Z,0.00
2022-09-17T03:17:34.186Z,0.00
2022-09-17T03:18:34.101Z,0.00
2022-09-17T03:19:34.072Z,0.00
2022-09-17T03:20:34.103Z,0.00
2022-09-17T03:21:34.732Z,0.00
2022-09-17T03:22:34.763Z,0.00
2022-09-17T03:23:34.372Z,0.00
2022-09-17T03:24:35.473Z,0.00
2022-09-17T03:25:34.173Z,0.00
2022-09-17T03:26:34.676Z,0.00
2022-09-17T03:27:34.005Z,0.00
2022-09-17T03:28:33.967Z,0.00
2022-09-17T03:29:34.004Z,0.00
2022-09-17T03:30:34.634Z,0.00
2022-09-17T03:31:35.482Z,0.00
2022-09-17T03:32:34.606Z,0.00
2022-09-17T03:33:34.614Z,0.00
2022-09-17T03:34:34.586Z,0.00
2022-09-17T03:35:35.085Z,0.00
2022-09-17T03:36:34.575Z,0.00
2022-09-17T03:37:33.876Z,0.00
2022-09-17T03:38:34.552Z,0.00
2022-09-17T03:39:34.537Z,0.00
2022-09-17T03:40:33.870Z,0.00
2022-09-17T03:41:33.837Z,0.00
2022-09-17T03:42:34.507Z,0.00
2022-09-17T03:43:34.497Z,0.00
2022-09-17T03:44:34.483Z,0.00
2022-09-17T03:45:34.469Z,0.00
2022-09-17T03:46:34.489Z,0.00
2022-09-17T03:47:34.449Z,0.00
2022-09-17T03:48:34.433Z,0.00
2022-09-17T03:49:34.428Z,0.00
2022-09-17T03:50:34.459Z,0.00
2022-09-17T03:51:34.426Z,0.00
2022-09-17T03:52:33.776Z,0.00
2022-09-17T03:53:33.680Z,0.00
2022-09-17T03:54:34.369Z,0.00
2022-09-17T03:55:34.361Z,0.00
2022-09-17T03:56:34.355Z,0.00
2022-09-17T03:57:33.666Z,0.00
2022-09-17T03:58:33.753Z,0.00
2022-09-17T03:59:33.650Z,0.00
2022-09-17T04:00:35.576Z,0.00
2022-09-17T04:01:34.360Z,0.00
2022-09-17T04:02:34.421Z,0.00
2022-09-17T04:03:35.032Z,0.00
2022-09-17T04:04:34.261Z,0.00
2022-09-17T04:05:35.013Z,0.00
2022-09-17T04:06:34.253Z,0.00
2022-09-17T04:07:33.569Z,0.00
2022-09-17T04:08:34.224Z,0.00
2022-09-17T04:09:35.346Z,0.00
2022-09-17T04:10:34.581Z,0.00
2022-09-17T04:11:33.503Z,0.00
2022-09-17T04:12:34.183Z,0.00
2022-09-17T04:13:34.163Z,0.00
2022-09-17T04:14:34.592Z,0.00
2022-09-17T04:15:33.465Z,0.00
2022-09-17T04:16:33.609Z,0.00
2022-09-17T04:17:33.446Z,0.00
2022-09-17T04:18:33.447Z,0.00
2022-09-17T04:19:33.432Z,0.00
2022-09-17T04:20:33.402Z,0.00
2022-09-17T04:21:33.395Z,0.00
2022-09-17T04:22:34.887Z,0.00
2022-09-17T04:23:34.065Z,0.00
2022-09-17T04:24:34.318Z,0.00
2022-09-17T04:25:34.052Z,0.00
2022-09-17T04:26:34.036Z,0.00
2022-09-17T04:27:33.353Z,0.00
2022-09-17T04:28:34.006Z,0.00
2022-09-17T04:29:33.320Z,0.00
2022-09-17T04:30:33.317Z,0.00
2022-09-17T04:31:34.283Z,0.00
2022-09-17T04:32:34.175Z,0.00
2022-09-17T04:33:33.267Z,0.00
2022-09-17T04:34:33.289Z,4.00
2022-09-17T04:35:33.237Z,4.00
2022-09-17T04:36:33.919Z,0.00
2022-09-17T04:37:33.913Z,0.00
2022-09-17T04:38:33.898Z,4.00
2022-09-17T04:39:34.650Z,4.00
2022-09-17T04:40:33.294Z,0.00
2022-09-17T04:41:33.859Z,4.00
2022-09-17T04:42:33.853Z,4.00
2022-09-17T04:43:33.177Z,4.00
2022-09-17T04:44:33.181Z,4.00
2022-09-17T04:45:33.853Z,8.00
2022-09-17T04:46:33.311Z,8.00
2022-09-17T04:47:34.563Z,12.00
2022-09-17T04:48:33.796Z,12.00
2022-09-17T04:49:33.290Z,16.00
2022-09-17T04:50:33.084Z,20.00
2022-09-17T04:51:33.764Z,20.00
2022-09-17T04:52:33.121Z,24.00
2022-09-17T04:53:33.051Z,28.00
2022-09-17T04:54:33.730Z,36.00
2022-09-17T04:55:33.721Z,44.00
2022-09-17T04:56:33.031Z,48.00
2022-09-17T04:57:34.006Z,52.00
2022-09-17T04:58:33.760Z,64.00
2022-09-17T04:59:33.673Z,72.00
2022-09-17T05:00:33.696Z,80.00
2022-09-17T05:01:34.415Z,88.00
2022-09-17T05:02:33.480Z,104.00
2022-09-17T05:03:33.638Z,112.00
2022-09-17T05:04:33.617Z,124.00
2022-09-17T05:05:33.625Z,136.00
2022-09-17T05:06:33.603Z,148.00
2022-09-17T05:07:33.593Z,164.00
2022-09-17T05:08:32.902Z,184.00
2022-09-17T05:09:33.588Z,200.00
2022-09-17T05:10:33.148Z,216.00
2022-09-17T05:11:33.670Z,232.00
2022-09-17T05:12:34.600Z,260.00
2022-09-17T05:13:32.846Z,280.00
2022-09-17T05:14:32.836Z,308.00
2022-09-17T05:15:32.849Z,336.00
2022-09-17T05:16:33.563Z,360.00
2022-09-17T05:17:34.758Z,384.00
2022-09-17T05:18:32.787Z,412.00
2022-09-17T05:19:33.465Z,436.00
2022-09-17T05:20:32.769Z,460.00
2022-09-17T05:21:32.808Z,480.00
2022-09-17T05:22:34.346Z,496.00
2022-09-17T05:23:32.768Z,516.00
2022-09-17T05:24:33.555Z,540.00
2022-09-17T05:25:33.556Z,564.00
2022-09-17T05:26:33.393Z,580.00
2022-09-17T05:27:33.623Z,604.00
2022-09-17T05:28:33.671Z,632.00
2022-09-17T05:29:34.643Z,648.00
2022-09-17T05:30:32.679Z,672.00
2022-09-17T05:31:32.719Z,704.00
2022-09-17T05:32:33.583Z,736.00
2022-09-17T05:33:33.318Z,772.00
2022-09-17T05:34:32.656Z,812.00
2022-09-17T05:35:33.300Z,860.00
2022-09-17T05:36:33.280Z,904.00
2022-09-17T05:37:33.282Z,952.00
2022-09-17T05:38:34.416Z,1020.00
2022-09-17T05:39:33.252Z,1076.00
2022-09-17T05:40:33.534Z,1132.00
2022-09-17T05:41:33.232Z,1168.00
2022-09-17T05:42:33.515Z,1228.00
2022-09-17T05:43:33.215Z,1264.00
2022-09-17T05:44:33.442Z,1300.00
2022-09-17T05:45:33.934Z,1308.00
2022-09-17T05:46:32.608Z,1328.00
2022-09-17T05:47:32.525Z,1376.00
2022-09-17T05:48:33.153Z,1388.00
2022-09-17T05:49:34.435Z,1392.00
2022-09-17T05:50:33.147Z,1368.00
2022-09-17T05:51:33.132Z,1184.00
2022-09-17T05:52:33.114Z,1168.00
2022-09-17T05:53:32.495Z,1152.00
2022-09-17T05:54:33.100Z,1240.00
2022-09-17T05:55:32.404Z,1188.00
2022-09-17T05:56:34.436Z,1148.00
2022-09-17T05:57:33.317Z,1136.00
2022-09-17T05:58:33.478Z,1128.00
2022-09-17T05:59:34.305Z,1152.00
2022-09-17T06:00:33.288Z,1192.00
2022-09-17T06:01:34.427Z,1248.00
2022-09-17T06:02:33.028Z,1232.00
2022-09-17T06:03:32.329Z,1216.00
2022-09-17T06:04:35.037Z,1248.00
2022-09-17T06:05:33.218Z,1304.00
2022-09-17T06:06:33.730Z,1372.00
2022-09-17T06:07:32.269Z,1452.00
2022-09-17T06:08:32.937Z,1544.00
2022-09-17T06:09:32.260Z,1608.00
2022-09-17T06:10:32.907Z,1640.00
2022-09-17T06:11:33.168Z,1660.00
2022-09-17T06:12:32.230Z,1740.00
2022-09-17T06:13:34.158Z,1640.00
2022-09-17T06:14:32.880Z,1696.00
2022-09-17T06:15:33.142Z,1836.00
2022-09-17T06:16:32.351Z,2220.00
2022-09-17T06:17:32.848Z,2500.00
2022-09-17T06:18:33.098Z,2600.00
2022-09-17T06:19:32.820Z,2628.00
2022-09-17T06:20:33.085Z,2664.00
2022-09-17T06:21:33.562Z,2724.00
2022-09-17T06:22:32.943Z,2832.00
2022-09-17T06:23:32.111Z,2992.00
2022-09-17T06:24:32.082Z,3116.00
2022-09-17T06:25:32.751Z,3044.00
2022-09-17T06:26:32.745Z,3036.00
2022-09-17T06:27:33.014Z,3080.00
2022-09-17T06:28:32.713Z,3212.00
2022-09-17T06:29:32.086Z,3468.00
2022-09-17T06:30:32.022Z,3576.00
2022-09-17T06:31:32.733Z,3824.00
2022-09-17T06:32:32.061Z,4316.00
2022-09-17T06:33:32.674Z,4704.00
2022-09-17T06:34:32.933Z,5048.00
2022-09-17T06:35:32.643Z,5060.00
2022-09-17T06:36:31.978Z,5768.00
2022-09-17T06:37:32.638Z,6560.00
2022-09-17T06:38:32.613Z,5196.00
2022-09-17T06:39:31.920Z,6276.00
2022-09-17T06:40:32.709Z,7104.00
2022-09-17T06:41:31.905Z,7540.00
2022-09-17T06:42:32.572Z,7552.00
2022-09-17T06:43:31.874Z,4312.00
2022-09-17T06:44:32.558Z,3888.00
2022-09-17T06:45:31.884Z,4232.00
2022-09-17T06:46:31.981Z,4052.00
2022-09-17T06:47:32.766Z,4940.00
2022-09-17T06:48:31.835Z,3512.00
2022-09-17T06:49:31.867Z,4868.00
2022-09-17T06:50:32.477Z,3632.00
2022-09-17T06:51:31.833Z,2748.00
2022-09-17T06:52:32.477Z,2392.00
2022-09-17T06:53:32.448Z,2368.00
2022-09-17T06:54:32.440Z,2300.00
2022-09-17T06:55:33.696Z,2340.00
2022-09-17T06:56:33.173Z,2544.00
2022-09-17T06:57:32.659Z,2776.00
2022-09-17T06:58:32.380Z,7712.00
2022-09-17T06:59:32.396Z,10476.00
2022-09-17T07:00:33.640Z,11904.00
2022-09-17T07:01:31.744Z,12268.00
2022-09-17T07:02:32.697Z,11428.00
2022-09-17T07:03:33.610Z,10944.00
2022-09-17T07:04:33.663Z,9928.00
2022-09-17T07:05:32.333Z,6104.00
2022-09-17T07:06:32.311Z,7316.00
2022-09-17T07:07:32.302Z,3648.00
2022-09-17T07:08:31.651Z,3728.00
2022-09-17T07:09:32.555Z,8004.00
2022-09-17T07:10:32.664Z,4504.00
2022-09-17T07:11:31.667Z,8164.00
2022-09-17T07:12:32.243Z,11648.00
2022-09-17T07:13:33.504Z,11940.00
2022-09-17T07:14:31.552Z,11688.00
2022-09-17T07:15:32.218Z,12128.00
2022-09-17T07:16:32.265Z,13184.00
2022-09-17T07:17:32.200Z,15232.00
2022-09-17T07:18:32.189Z,16256.00
2022-09-17T07:19:32.177Z,15872.00
2022-09-17T07:20:32.171Z,15328.00
2022-09-17T07:21:31.487Z,15488.00
2022-09-17T07:22:33.449Z,17408.00
2022-09-17T07:23:32.386Z,19008.00
2022-09-17T07:24:33.406Z,18336.00
2022-09-17T07:25:32.366Z,15424.00
2022-09-17T07:26:31.419Z,12696.00
2022-09-17T07:27:32.077Z,11872.00
2022-09-17T07:28:31.426Z,12192.00
2022-09-17T07:29:32.059Z,11884.00
2022-09-17T07:30:32.838Z,11012.00
2022-09-17T07:31:31.394Z,10316.00
2022-09-17T07:32:33.089Z,9836.00
2022-09-17T07:33:32.017Z,9740.00
2022-09-17T07:34:31.359Z,9732.00
2022-09-17T07:35:31.320Z,9992.00
2022-09-17T07:36:31.990Z,10808.00
2022-09-17T07:37:31.970Z,12980.00
2022-09-17T07:38:31.965Z,14516.00
2022-09-17T07:39:32.283Z,12828.00
2022-09-17T07:40:31.460Z,13856.00
2022-09-17T07:41:31.371Z,15520.00
2022-09-17T07:42:31.762Z,16640.00
2022-09-17T07:43:31.224Z,16352.00
2022-09-17T07:44:31.253Z,16704.00
2022-09-17T07:45:31.295Z,17248.00
2022-09-17T07:46:31.905Z,17504.00
2022-09-17T07:47:31.871Z,18016.00
2022-09-17T07:48:31.871Z,19040.00
2022-09-17T07:49:31.175Z,18528.00
2022-09-17T07:50:31.183Z,18080.00
2022-09-17T07:51:31.175Z,18464.00
2022-09-17T07:52:31.186Z,20128.00
2022-09-17T07:53:31.806Z,20256.00
2022-09-17T07:54:31.137Z,20160.00
2022-09-17T07:55:33.109Z,19904.00
2022-09-17T07:56:31.126Z,18912.00
2022-09-17T07:57:31.098Z,21472.00
2022-09-17T07:58:31.108Z,21856.00
2022-09-17T07:59:31.097Z,21696.00
2022-09-17T08:00:32.830Z,22848.00
2022-09-17T08:01:31.059Z,22688.00
2022-09-17T08:02:31.049Z,22688.00
2022-09-17T08:03:31.699Z,22752.00
2022-09-17T08:04:31.163Z,22592.00
2022-09-17T08:05:30.990Z,24800.00
2022-09-17T08:06:32.470Z,26048.00
2022-09-17T08:07:31.889Z,26144.00
2022-09-17T08:08:30.982Z,24224.00
2022-09-17T08:09:31.630Z,22720.00
2022-09-17T08:10:31.931Z,24128.00
2022-09-17T08:11:54.418Z,26016.00
2022-09-17T08:12:32.843Z,26656.00
2022-09-17T08:13:30.941Z,27328.00
2022-09-17T08:14:31.065Z,27680.00
2022-09-17T08:15:31.570Z,28576.00
2022-09-17T08:16:31.034Z,30752.00
2022-09-17T08:17:30.892Z,30752.00
2022-09-17T08:18:30.912Z,28512.00
2022-09-17T08:19:30.886Z,27264.00
2022-09-17T08:20:30.886Z,27712.00
2022-09-17T08:21:30.850Z,28960.00
2022-09-17T08:22:30.935Z,27424.00
2022-09-17T08:23:30.874Z,27584.00
2022-09-17T08:24:30.818Z,27904.00
2022-09-17T08:25:31.478Z,27200.00
2022-09-17T08:26:30.796Z,24576.00
2022-09-17T08:27:30.778Z,24096.00
2022-09-17T08:28:30.819Z,26848.00
2022-09-17T08:29:35.004Z,29792.00
2022-09-17T08:30:30.729Z,28320.00
2022-09-17T08:31:31.422Z,26784.00
2022-09-17T08:32:32.177Z,25376.00
2022-09-17T08:33:31.372Z,25344.00
2022-09-17T08:34:31.431Z,28576.00
2022-09-17T08:35:30.671Z,31072.00
2022-09-17T08:36:31.349Z,29696.00
2022-09-17T08:37:30.680Z,28448.00
2022-09-17T08:38:35.707Z,26368.00
2022-09-17T08:39:31.683Z,22848.00
2022-09-17T08:40:31.352Z,23040.00
2022-09-17T08:41:31.293Z,7072.00
2022-09-17T08:42:30.635Z,33344.00
2022-09-17T08:43:31.288Z,7144.00
2022-09-17T08:44:30.588Z,2836.00
2022-09-17T08:45:32.183Z,2536.00
2022-09-17T08:46:31.314Z,28064.00
2022-09-17T08:47:30.545Z,30112.00
2022-09-17T08:48:30.555Z,33536.00
2022-09-17T08:49:31.225Z,36256.00
2022-09-17T08:50:30.548Z,35872.00
2022-09-17T08:51:30.578Z,29248.00
2022-09-17T08:52:31.179Z,31936.00
2022-09-17T08:53:30.508Z,35456.00
2022-09-17T08:54:30.490Z,36768.00
2022-09-17T08:55:31.558Z,35584.00
2022-09-17T08:56:30.490Z,36640.00
2022-09-17T08:57:30.487Z,37792.00
2022-09-17T08:58:31.108Z,36704.00
2022-09-17T08:59:30.525Z,32992.00
2022-09-17T09:00:30.418Z,6444.00
2022-09-17T09:01:31.104Z,5496.00
2022-09-17T09:02:30.490Z,10512.00
2022-09-17T09:03:31.150Z,8264.00
2022-09-17T09:04:30.360Z,8724.00
2022-09-17T09:05:31.310Z,8924.00
2022-09-17T09:06:30.351Z,9004.00
2022-09-17T09:07:30.362Z,6952.00
2022-09-17T09:08:30.321Z,8132.00
2022-09-17T09:09:31.060Z,7860.00
2022-09-17T09:10:31.012Z,3964.00
2022-09-17T09:11:31.224Z,6276.00
2022-09-17T09:12:30.301Z,6336.00
2022-09-17T09:13:30.944Z,6576.00
2022-09-17T09:14:30.933Z,6736.00
2022-09-17T09:15:30.312Z,6924.00
2022-09-17T09:16:30.301Z,3960.00
2022-09-17T09:17:30.217Z,4080.00
2022-09-17T09:18:30.236Z,3848.00
2022-09-17T09:19:31.144Z,5572.00
2022-09-17T09:20:30.313Z,3552.00
2022-09-17T09:21:30.850Z,5840.00
2022-09-17T09:22:30.906Z,5680.00
2022-09-17T09:23:30.167Z,3156.00
2022-09-17T09:24:31.589Z,3256.00
2022-09-17T09:25:30.819Z,5364.00
2022-09-17T09:26:30.813Z,3088.00
2022-09-17T09:27:30.218Z,3656.00
2022-09-17T09:28:31.539Z,5288.00
2022-09-17T09:29:30.769Z,5904.00
2022-09-17T09:30:30.778Z,5764.00
2022-09-17T09:31:30.091Z,4308.00
2022-09-17T09:32:30.061Z,4760.00
2022-09-17T09:33:30.169Z,5184.00
2022-09-17T09:34:30.278Z,5384.00
2022-09-17T09:35:30.703Z,6020.00
2022-09-17T09:36:30.010Z,4580.00
2022-09-17T09:37:30.111Z,5860.00
2022-09-17T09:38:30.022Z,4524.00
2022-09-17T09:39:32.455Z,5356.00
2022-09-17T09:40:31.011Z,5340.00
2022-09-17T09:41:30.644Z,5664.00
2022-09-17T09:42:29.944Z,6184.00
2022-09-17T09:43:52.655Z,6924.00
2022-09-17T09:44:30.975Z,8376.00
2022-09-17T09:45:29.922Z,8048.00
2022-09-17T09:46:30.608Z,7780.00
2022-09-17T09:47:30.584Z,7800.00
2022-09-17T09:48:30.891Z,6160.00
2022-09-17T09:49:30.559Z,5044.00
2022-09-17T09:50:48.384Z,5820.00
2022-09-17T09:51:30.865Z,5768.00
2022-09-17T09:52:30.841Z,5948.00
2022-09-17T09:53:30.506Z,4724.00
2022-09-17T09:54:30.509Z,3884.00
2022-09-17T09:55:30.487Z,3596.00
2022-09-17T09:56:29.929Z,4508.00
2022-09-17T09:57:29.848Z,4628.00
2022-09-17T09:58:29.810Z,5840.00
2022-09-17T09:59:30.060Z,6660.00
2022-09-17T10:00:30.440Z,6412.00
2022-09-17T10:01:29.924Z,5032.00
2022-09-17T10:02:29.941Z,5964.00
2022-09-17T10:03:29.742Z,5456.00
2022-09-17T10:04:29.778Z,5184.00
2022-09-17T10:05:30.380Z,3300.00
2022-09-17T10:06:29.760Z,3192.00
2022-09-17T10:07:29.690Z,3200.00
2022-09-17T10:08:29.701Z,4420.00
2022-09-17T10:09:29.724Z,4512.00
2022-09-17T10:10:30.340Z,4196.00
2022-09-17T10:11:30.321Z,4240.00
2022-09-17T10:12:30.316Z,3976.00
2022-09-17T10:13:30.572Z,4052.00
2022-09-17T10:14:29.657Z,3984.00
2022-09-17T10:15:29.672Z,4248.00
2022-09-17T10:16:30.305Z,4096.00
2022-09-17T10:17:30.254Z,3876.00
2022-09-17T10:18:30.245Z,3892.00
2022-09-17T10:19:29.850Z,4596.00
2022-09-17T10:20:31.047Z,5480.00
2022-09-17T10:21:29.545Z,4196.00
2022-09-17T10:22:30.215Z,4364.00
2022-09-17T10:23:30.190Z,4412.00
2022-09-17T10:24:30.456Z,4400.00
2022-09-17T10:25:29.493Z,3156.00
2022-09-17T10:26:29.582Z,3296.00
2022-09-17T10:27:29.550Z,3524.00
2022-09-17T10:28:29.475Z,3468.00
2022-09-17T10:29:30.126Z,3356.00
2022-09-17T10:30:29.451Z,3548.00
2022-09-17T10:31:29.468Z,4108.00
2022-09-17T10:32:30.099Z,4796.00
2022-09-17T10:33:29.458Z,4784.00
2022-09-17T10:34:30.069Z,5092.00
2022-09-17T10:35:30.060Z,4964.00
2022-09-17T10:36:29.442Z,4564.00
2022-09-17T10:37:29.370Z,4740.00
2022-09-17T10:38:30.021Z,4896.00
2022-09-17T10:39:29.391Z,4500.00
2022-09-17T10:40:30.026Z,4040.00
2022-09-17T10:41:29.342Z,3600.00
2022-09-17T10:42:29.300Z,2980.00
2022-09-17T10:43:29.979Z,2696.00
2022-09-17T10:44:30.032Z,2224.00
2022-09-17T10:45:29.278Z,1956.00
2022-09-17T10:46:29.977Z,1844.00
2022-09-17T10:47:29.316Z,1900.00
2022-09-17T10:48:29.940Z,2316.00
2022-09-17T10:49:29.256Z,2800.00
2022-09-17T10:50:29.977Z,2912.00
2022-09-17T10:51:29.236Z,3100.00
2022-09-17T10:52:29.894Z,2620.00
2022-09-17T10:53:29.179Z,2440.00
2022-09-17T10:54:29.875Z,2372.00
2022-09-17T10:55:29.357Z,2284.00
2022-09-17T10:56:29.216Z,2152.00
2022-09-17T10:57:29.825Z,2044.00
2022-09-17T10:58:29.257Z,1996.00
2022-09-17T10:59:29.107Z,1972.00
2022-09-17T11:00:29.787Z,1944.00
2022-09-17T11:01:29.855Z,1964.00
2022-09-17T11:02:29.320Z,2004.00
2022-09-17T11:03:29.116Z,1980.00
2022-09-17T11:04:29.128Z,2028.00
2022-09-17T11:05:29.147Z,2004.00
2022-09-17T11:06:29.099Z,2056.00
2022-09-17T11:07:29.716Z,2256.00
2022-09-17T11:08:29.119Z,2428.00
2022-09-17T11:09:29.939Z,2804.00
2022-09-17T11:10:29.692Z,2760.00
2022-09-17T11:11:29.680Z,2492.00
2022-09-17T11:12:29.676Z,2192.00
2022-09-17T11:13:30.404Z,2352.00
2022-09-17T11:14:29.631Z,2440.00
2022-09-17T11:15:28.941Z,2536.00
2022-09-17T11:16:29.073Z,2740.00
2022-09-17T11:17:29.612Z,3200.00
2022-09-17T11:18:29.603Z,3372.00
2022-09-17T11:19:29.603Z,3680.00
2022-09-17T11:20:29.563Z,3944.00
2022-09-17T11:21:29.565Z,4328.00
2022-09-17T11:22:29.569Z,5128.00
2022-09-17T11:23:29.163Z,5340.00
2022-09-17T11:24:29.537Z,6152.00
2022-09-17T11:25:29.526Z,6320.00
2022-09-17T11:26:29.605Z,6308.00
2022-09-17T11:27:28.822Z,6460.00
2022-09-17T11:28:28.824Z,6136.00
2022-09-17T11:29:29.483Z,6328.00
2022-09-17T11:30:28.795Z,5608.00
2022-09-17T11:31:28.905Z,4760.00
2022-09-17T11:32:28.927Z,5224.00
2022-09-17T11:33:28.756Z,4876.00
2022-09-17T11:34:28.754Z,4544.00
2022-09-17T11:35:29.418Z,4184.00
2022-09-17T11:36:28.763Z,4276.00
2022-09-17T11:37:29.389Z,3980.00
2022-09-17T11:38:29.464Z,3464.00
2022-09-17T11:39:28.750Z,3952.00
2022-09-17T11:40:29.704Z,4664.00
2022-09-17T11:41:28.694Z,3676.00
2022-09-17T11:42:29.336Z,3076.00
2022-09-17T11:43:28.647Z,2520.00
2022-09-17T11:44:29.619Z,2368.00
2022-09-17T11:45:29.308Z,2924.00
2022-09-17T11:46:29.337Z,2532.00
2022-09-17T11:47:29.282Z,2404.00
2022-09-17T11:48:29.282Z,3104.00
2022-09-17T11:49:29.261Z,3348.00
2022-09-17T11:50:30.082Z,3332.00
2022-09-17T11:51:28.583Z,3444.00
2022-09-17T11:52:28.583Z,4092.00
2022-09-17T11:53:29.234Z,4132.00
2022-09-17T11:54:29.225Z,4280.00
2022-09-17T11:55:29.193Z,4312.00
2022-09-17T11:56:28.564Z,3716.00
2022-09-17T11:57:28.881Z,3444.00
2022-09-17T11:58:29.929Z,4296.00
2022-09-17T11:59:28.545Z,4008.00
2022-09-17T12:00:29.144Z,3780.00
2022-09-17T12:01:29.945Z,3788.00
2022-09-17T12:02:29.958Z,3664.00
2022-09-17T12:03:29.121Z,3588.00
2022-09-17T12:04:29.110Z,4064.00
2022-09-17T12:05:29.392Z,4136.00
2022-09-17T12:06:29.076Z,4584.00
2022-09-17T12:07:29.069Z,4500.00
2022-09-17T12:08:29.049Z,4136.00
2022-09-17T12:09:28.397Z,3948.00
2022-09-17T12:10:28.368Z,4056.00
2022-09-17T12:11:28.357Z,3956.00
2022-09-17T12:12:49.224Z,3956.00
2022-09-17T12:13:30.897Z,4048.00
2022-09-17T12:14:28.362Z,3352.00
2022-09-17T12:15:28.980Z,3048.00
2022-09-17T12:16:28.363Z,3260.00
2022-09-17T12:17:28.969Z,5248.00
2022-09-17T12:18:33.273Z,5204.00
2022-09-17T12:19:29.028Z,4580.00
2022-09-17T12:20:29.789Z,3664.00
2022-09-17T12:21:28.240Z,3640.00
2022-09-17T12:22:28.903Z,3032.00
2022-09-17T12:23:28.241Z,2648.00
2022-09-17T12:24:28.891Z,2364.00
2022-09-17T12:25:28.262Z,2268.00
2022-09-17T12:26:29.111Z,2192.00
2022-09-17T12:27:29.612Z,2152.00
2022-09-17T12:28:28.833Z,2164.00
2022-09-17T12:29:28.144Z,2208.00
2022-09-17T12:30:29.594Z,2244.00